sensor_id;sensor_type;location;lat;lon;timestamp;P1;durP1;ratioP1;P2;durP2;ratioP2
66298;SDS011;53098;47.658;8.578;2023-04-06T00:00:39;8.82;;;4.13;;
66298;SDS011;53098;47.658;8.578;2023-04-06T00:03:04;8.82;;;4.47;;
66298;SDS011;53098;47.658;8.578;2023-04-06T00:05:29;8.73;;;4.93;;
66298;SDS011;53098;47.658;8.578;2023-04-06T00:07:54;10.33;;;5.13;;
66298;SDS011;53098;47.658;8.578;2023-04-06T00:10:20;10.30;;;4.47;;
66298;SDS011;53098;47.658;8.578;2023-04-06T00:12:45;12.00;;;5.17;;
66298;SDS011;53098;47.658;8.578;2023-04-06T00:15:10;8.97;;;4.63;;
66298;SDS011;53098;47.658;8.578;2023-04-06T00:17:36;9.63;;;4.50;;
66298;SDS011;53098;47.658;8.578;2023-04-06T00:20:01;8.80;;;4.57;;
66298;SDS011;53098;47.658;8.578;2023-04-06T00:22:26;11.98;;;5.25;;
66298;SDS011;53098;47.658;8.578;2023-04-06T00:24:52;9.47;;;4.43;;
66298;SDS011;53098;47.658;8.578;2023-04-06T00:27:17;9.48;;;4.35;;
66298;SDS011;53098;47.658;8.578;2023-04-06T00:29:43;8.40;;;4.60;;
66298;SDS011;53098;47.658;8.578;2023-04-06T00:32:08;12.38;;;5.30;;
66298;SDS011;53098;47.658;8.578;2023-04-06T00:34:35;8.85;;;4.78;;
66298;SDS011;53098;47.658;8.578;2023-04-06T00:37:00;9.30;;;4.43;;
66298;SDS011;53098;47.658;8.578;2023-04-06T00:39:28;9.00;;;4.45;;
66298;SDS011;53098;47.658;8.578;2023-04-06T00:41:53;10.37;;;4.57;;
66298;SDS011;53098;47.658;8.578;2023-04-06T00:44:19;10.77;;;4.50;;
66298;SDS011;53098;47.658;8.578;2023-04-06T00:46:45;10.00;;;5.20;;
66298;SDS011;53098;47.658;8.578;2023-04-06T00:49:10;9.82;;;4.57;;
66298;SDS011;53098;47.658;8.578;2023-04-06T00:51:35;10.40;;;5.13;;
66298;SDS011;53098;47.658;8.578;2023-04-06T00:54:01;10.43;;;4.90;;
66298;SDS011;53098;47.658;8.578;2023-04-06T00:56:26;9.13;;;5.00;;
66298;SDS011;53098;47.658;8.578;2023-04-06T00:58:51;10.17;;;4.90;;
66298;SDS011;53098;47.658;8.578;2023-04-06T01:01:17;12.15;;;5.13;;
66298;SDS011;53098;47.658;8.578;2023-04-06T01:03:42;8.87;;;4.27;;
66298;SDS011;53098;47.658;8.578;2023-04-06T01:06:07;9.90;;;5.20;;
66298;SDS011;53098;47.658;8.578;2023-04-06T01:08:33;10.77;;;5.18;;
66298;SDS011;53098;47.658;8.578;2023-04-06T01:11:01;9.93;;;4.95;;
66298;SDS011;53098;47.658;8.578;2023-04-06T01:13:26;8.80;;;4.75;;
66298;SDS011;53098;47.658;8.578;2023-04-06T01:15:52;9.27;;;4.78;;
66298;SDS011;53098;47.658;8.578;2023-04-06T01:18:17;10.60;;;5.47;;
66298;SDS011;53098;47.658;8.578;2023-04-06T01:20:42;11.83;;;5.13;;
66298;SDS011;53098;47.658;8.578;2023-04-06T01:23:08;9.73;;;5.10;;
66298;SDS011;53098;47.658;8.578;2023-04-06T01:25:33;9.48;;;5.03;;
66298;SDS011;53098;47.658;8.578;2023-04-06T01:27:58;10.40;;;4.70;;
66298;SDS011;53098;47.658;8.578;2023-04-06T01:30:24;11.17;;;4.67;;
66298;SDS011;53098;47.658;8.578;2023-04-06T01:32:49;9.63;;;5.07;;
66298;SDS011;53098;47.658;8.578;2023-04-06T01:35:14;11.75;;;4.70;;
66298;SDS011;53098;47.658;8.578;2023-04-06T01:37:40;11.83;;;5.00;;
66298;SDS011;53098;47.658;8.578;2023-04-06T01:40:05;9.10;;;4.50;;
66298;SDS011;53098;47.658;8.578;2023-04-06T01:42:31;10.10;;;5.03;;
66298;SDS011;53098;47.658;8.578;2023-04-06T01:44:56;10.47;;;5.33;;
66298;SDS011;53098;47.658;8.578;2023-04-06T01:47:21;10.67;;;5.40;;
66298;SDS011;53098;47.658;8.578;2023-04-06T01:49:46;9.90;;;4.83;;
66298;SDS011;53098;47.658;8.578;2023-04-06T01:52:12;10.03;;;4.83;;
66298;SDS011;53098;47.658;8.578;2023-04-06T01:54:37;12.57;;;6.33;;
66298;SDS011;53098;47.658;8.578;2023-04-06T01:57:02;11.27;;;5.30;;
66298;SDS011;53098;47.658;8.578;2023-04-06T01:59:28;9.27;;;4.78;;
66298;SDS011;53098;47.658;8.578;2023-04-06T02:01:53;14.57;;;5.40;;
66298;SDS011;53098;47.658;8.578;2023-04-06T02:04:18;11.27;;;4.40;;
66298;SDS011;53098;47.658;8.578;2023-04-06T02:06:43;9.70;;;4.77;;
66298;SDS011;53098;47.658;8.578;2023-04-06T02:09:09;9.87;;;5.20;;
66298;SDS011;53098;47.658;8.578;2023-04-06T02:11:34;12.60;;;5.65;;
66298;SDS011;53098;47.658;8.578;2023-04-06T02:13:59;21.47;;;13.23;;
66298;SDS011;53098;47.658;8.578;2023-04-06T02:16:24;10.93;;;5.87;;
66298;SDS011;53098;47.658;8.578;2023-04-06T02:18:50;10.20;;;5.80;;
66298;SDS011;53098;47.658;8.578;2023-04-06T02:21:15;10.07;;;5.30;;
66298;SDS011;53098;47.658;8.578;2023-04-06T02:23:40;10.20;;;5.30;;
66298;SDS011;53098;47.658;8.578;2023-04-06T02:26:06;13.67;;;5.03;;
66298;SDS011;53098;47.658;8.578;2023-04-06T02:28:31;10.27;;;4.77;;
66298;SDS011;53098;47.658;8.578;2023-04-06T02:30:56;8.27;;;4.13;;
66298;SDS011;53098;47.658;8.578;2023-04-06T02:33:22;10.55;;;5.10;;
66298;SDS011;53098;47.658;8.578;2023-04-06T02:35:47;12.70;;;5.40;;
66298;SDS011;53098;47.658;8.578;2023-04-06T02:38:13;11.05;;;5.22;;
66298;SDS011;53098;47.658;8.578;2023-04-06T02:40:38;10.90;;;4.83;;
66298;SDS011;53098;47.658;8.578;2023-04-06T02:43:03;9.60;;;5.17;;
66298;SDS011;53098;47.658;8.578;2023-04-06T02:45:28;13.63;;;5.30;;
66298;SDS011;53098;47.658;8.578;2023-04-06T02:47:54;11.70;;;5.23;;
66298;SDS011;53098;47.658;8.578;2023-04-06T02:50:19;10.47;;;5.23;;
66298;SDS011;53098;47.658;8.578;2023-04-06T02:52:44;10.67;;;5.33;;
66298;SDS011;53098;47.658;8.578;2023-04-06T02:55:10;10.97;;;5.83;;
66298;SDS011;53098;47.658;8.578;2023-04-06T02:57:35;9.85;;;4.63;;
66298;SDS011;53098;47.658;8.578;2023-04-06T03:00:00;11.05;;;5.60;;
66298;SDS011;53098;47.658;8.578;2023-04-06T03:02:26;12.10;;;5.17;;
66298;SDS011;53098;47.658;8.578;2023-04-06T03:04:51;10.30;;;5.40;;
66298;SDS011;53098;47.658;8.578;2023-04-06T03:07:16;12.17;;;5.87;;
66298;SDS011;53098;47.658;8.578;2023-04-06T03:09:41;12.57;;;5.53;;
66298;SDS011;53098;47.658;8.578;2023-04-06T03:12:07;12.10;;;5.30;;
66298;SDS011;53098;47.658;8.578;2023-04-06T03:14:32;13.87;;;4.97;;
66298;SDS011;53098;47.658;8.578;2023-04-06T03:16:57;12.65;;;5.38;;
66298;SDS011;53098;47.658;8.578;2023-04-06T03:19:23;10.40;;;4.73;;
66298;SDS011;53098;47.658;8.578;2023-04-06T03:21:48;11.53;;;5.20;;
66298;SDS011;53098;47.658;8.578;2023-04-06T03:24:13;10.15;;;5.07;;
66298;SDS011;53098;47.658;8.578;2023-04-06T03:26:39;12.07;;;5.90;;
66298;SDS011;53098;47.658;8.578;2023-04-06T03:29:04;13.97;;;5.50;;
66298;SDS011;53098;47.658;8.578;2023-04-06T03:31:29;13.37;;;5.90;;
66298;SDS011;53098;47.658;8.578;2023-04-06T03:33:55;10.67;;;5.47;;
66298;SDS011;53098;47.658;8.578;2023-04-06T03:36:20;13.48;;;5.55;;
66298;SDS011;53098;47.658;8.578;2023-04-06T03:38:45;11.25;;;5.80;;
66298;SDS011;53098;47.658;8.578;2023-04-06T03:41:11;9.60;;;4.88;;
66298;SDS011;53098;47.658;8.578;2023-04-06T03:43:36;10.87;;;5.10;;
66298;SDS011;53098;47.658;8.578;2023-04-06T03:46:01;10.03;;;4.93;;
66298;SDS011;53098;47.658;8.578;2023-04-06T03:48:27;10.80;;;5.10;;
66298;SDS011;53098;47.658;8.578;2023-04-06T03:50:52;10.63;;;5.37;;
66298;SDS011;53098;47.658;8.578;2023-04-06T03:53:17;11.65;;;5.40;;
66298;SDS011;53098;47.658;8.578;2023-04-06T03:55:42;10.53;;;5.60;;
66298;SDS011;53098;47.658;8.578;2023-04-06T03:58:08;13.33;;;5.67;;
66298;SDS011;53098;47.658;8.578;2023-04-06T04:00:33;11.70;;;5.53;;
66298;SDS011;53098;47.658;8.578;2023-04-06T04:02:58;10.93;;;5.30;;
66298;SDS011;53098;47.658;8.578;2023-04-06T04:05:24;12.80;;;5.37;;
66298;SDS011;53098;47.658;8.578;2023-04-06T04:07:49;10.13;;;5.17;;
66298;SDS011;53098;47.658;8.578;2023-04-06T04:10:14;10.90;;;5.27;;
66298;SDS011;53098;47.658;8.578;2023-04-06T04:12:39;10.38;;;5.72;;
66298;SDS011;53098;47.658;8.578;2023-04-06T04:15:05;10.33;;;5.10;;
66298;SDS011;53098;47.658;8.578;2023-04-06T04:17:30;12.63;;;4.95;;
66298;SDS011;53098;47.658;8.578;2023-04-06T04:19:56;10.23;;;5.20;;
66298;SDS011;53098;47.658;8.578;2023-04-06T04:22:21;9.00;;;5.37;;
66298;SDS011;53098;47.658;8.578;2023-04-06T04:24:46;7.72;;;4.22;;
66298;SDS011;53098;47.658;8.578;2023-04-06T04:27:12;9.00;;;5.13;;
66298;SDS011;53098;47.658;8.578;2023-04-06T04:29:37;11.10;;;4.57;;
66298;SDS011;53098;47.658;8.578;2023-04-06T04:32:02;9.80;;;4.70;;
66298;SDS011;53098;47.658;8.578;2023-04-06T04:34:28;11.90;;;4.88;;
66298;SDS011;53098;47.658;8.578;2023-04-06T04:36:53;11.73;;;4.80;;
66298;SDS011;53098;47.658;8.578;2023-04-06T04:39:18;11.50;;;4.57;;
66298;SDS011;53098;47.658;8.578;2023-04-06T04:41:44;9.73;;;5.20;;
66298;SDS011;53098;47.658;8.578;2023-04-06T04:44:09;9.75;;;5.40;;
66298;SDS011;53098;47.658;8.578;2023-04-06T04:46:34;11.93;;;5.07;;
66298;SDS011;53098;47.658;8.578;2023-04-06T04:49:00;10.60;;;5.40;;
66298;SDS011;53098;47.658;8.578;2023-04-06T04:51:25;10.90;;;5.10;;
66298;SDS011;53098;47.658;8.578;2023-04-06T04:53:50;10.77;;;4.47;;
66298;SDS011;53098;47.658;8.578;2023-04-06T04:56:16;10.60;;;4.95;;
66298;SDS011;53098;47.658;8.578;2023-04-06T04:58:41;9.10;;;4.07;;
66298;SDS011;53098;47.658;8.578;2023-04-06T05:01:07;10.88;;;4.72;;
66298;SDS011;53098;47.658;8.578;2023-04-06T05:03:33;9.15;;;4.82;;
66298;SDS011;53098;47.658;8.578;2023-04-06T05:05:58;10.70;;;4.78;;
66298;SDS011;53098;47.658;8.578;2023-04-06T05:08:23;13.32;;;5.65;;
66298;SDS011;53098;47.658;8.578;2023-04-06T05:10:49;12.00;;;5.45;;
66298;SDS011;53098;47.658;8.578;2023-04-06T05:13:14;9.60;;;5.00;;
66298;SDS011;53098;47.658;8.578;2023-04-06T05:15:40;9.45;;;5.18;;
66298;SDS011;53098;47.658;8.578;2023-04-06T05:18:05;10.40;;;5.20;;
66298;SDS011;53098;47.658;8.578;2023-04-06T05:20:31;9.25;;;5.32;;
66298;SDS011;53098;47.658;8.578;2023-04-06T05:22:56;10.13;;;4.97;;
66298;SDS011;53098;47.658;8.578;2023-04-06T05:25:21;10.83;;;5.63;;
66298;SDS011;53098;47.658;8.578;2023-04-06T05:27:46;12.65;;;5.88;;
66298;SDS011;53098;47.658;8.578;2023-04-06T05:30:12;11.20;;;6.80;;
66298;SDS011;53098;47.658;8.578;2023-04-06T05:32:37;12.13;;;6.53;;
66298;SDS011;53098;47.658;8.578;2023-04-06T05:35:03;10.40;;;5.77;;
66298;SDS011;53098;47.658;8.578;2023-04-06T05:37:28;9.77;;;4.93;;
66298;SDS011;53098;47.658;8.578;2023-04-06T05:39:53;11.48;;;5.35;;
66298;SDS011;53098;47.658;8.578;2023-04-06T05:42:19;11.07;;;5.18;;
66298;SDS011;53098;47.658;8.578;2023-04-06T05:44:44;10.47;;;4.97;;
66298;SDS011;53098;47.658;8.578;2023-04-06T05:47:09;11.33;;;5.87;;
66298;SDS011;53098;47.658;8.578;2023-04-06T05:49:35;13.07;;;5.38;;
66298;SDS011;53098;47.658;8.578;2023-04-06T05:52:00;11.07;;;5.07;;
66298;SDS011;53098;47.658;8.578;2023-04-06T05:54:26;9.57;;;4.78;;
66298;SDS011;53098;47.658;8.578;2023-04-06T05:56:51;10.32;;;5.18;;
66298;SDS011;53098;47.658;8.578;2023-04-06T05:59:16;12.07;;;5.97;;
66298;SDS011;53098;47.658;8.578;2023-04-06T06:01:42;11.10;;;5.83;;
66298;SDS011;53098;47.658;8.578;2023-04-06T06:04:07;12.57;;;5.23;;
66298;SDS011;53098;47.658;8.578;2023-04-06T06:06:32;9.85;;;4.80;;
66298;SDS011;53098;47.658;8.578;2023-04-06T06:08:58;17.45;;;5.55;;
66298;SDS011;53098;47.658;8.578;2023-04-06T06:11:23;10.23;;;5.63;;
66298;SDS011;53098;47.658;8.578;2023-04-06T06:13:48;10.50;;;5.23;;
66298;SDS011;53098;47.658;8.578;2023-04-06T06:16:14;10.93;;;5.50;;
66298;SDS011;53098;47.658;8.578;2023-04-06T06:18:39;9.73;;;4.90;;
66298;SDS011;53098;47.658;8.578;2023-04-06T06:21:04;11.23;;;5.40;;
66298;SDS011;53098;47.658;8.578;2023-04-06T06:23:30;12.50;;;5.63;;
66298;SDS011;53098;47.658;8.578;2023-04-06T06:25:56;12.23;;;6.00;;
66298;SDS011;53098;47.658;8.578;2023-04-06T06:28:21;10.57;;;5.63;;
66298;SDS011;53098;47.658;8.578;2023-04-06T06:30:46;9.52;;;5.03;;
66298;SDS011;53098;47.658;8.578;2023-04-06T06:33:12;11.95;;;5.30;;
66298;SDS011;53098;47.658;8.578;2023-04-06T06:35:37;10.60;;;5.30;;
66298;SDS011;53098;47.658;8.578;2023-04-06T06:38:02;11.35;;;5.47;;
66298;SDS011;53098;47.658;8.578;2023-04-06T06:40:28;10.67;;;5.03;;
66298;SDS011;53098;47.658;8.578;2023-04-06T06:42:53;11.03;;;5.57;;
66298;SDS011;53098;47.658;8.578;2023-04-06T06:45:18;11.50;;;5.80;;
66298;SDS011;53098;47.658;8.578;2023-04-06T06:47:44;12.73;;;5.47;;
66298;SDS011;53098;47.658;8.578;2023-04-06T06:50:09;13.10;;;5.97;;
66298;SDS011;53098;47.658;8.578;2023-04-06T06:52:35;13.20;;;6.25;;
66298;SDS011;53098;47.658;8.578;2023-04-06T06:55:00;13.93;;;6.30;;
66298;SDS011;53098;47.658;8.578;2023-04-06T06:57:26;12.38;;;6.28;;
66298;SDS011;53098;47.658;8.578;2023-04-06T06:59:51;10.95;;;6.63;;
66298;SDS011;53098;47.658;8.578;2023-04-06T07:02:16;12.00;;;6.23;;
66298;SDS011;53098;47.658;8.578;2023-04-06T07:04:41;12.90;;;6.53;;
66298;SDS011;53098;47.658;8.578;2023-04-06T07:07:07;11.70;;;5.87;;
66298;SDS011;53098;47.658;8.578;2023-04-06T07:09:32;12.20;;;6.13;;
66298;SDS011;53098;47.658;8.578;2023-04-06T07:11:57;12.53;;;5.53;;
66298;SDS011;53098;47.658;8.578;2023-04-06T07:14:22;11.67;;;6.07;;
66298;SDS011;53098;47.658;8.578;2023-04-06T07:16:48;10.30;;;5.50;;
66298;SDS011;53098;47.658;8.578;2023-04-06T07:19:13;10.80;;;5.33;;
66298;SDS011;53098;47.658;8.578;2023-04-06T07:21:38;14.20;;;5.73;;
66298;SDS011;53098;47.658;8.578;2023-04-06T07:24:04;12.52;;;5.60;;
66298;SDS011;53098;47.658;8.578;2023-04-06T07:26:29;11.48;;;5.70;;
66298;SDS011;53098;47.658;8.578;2023-04-06T07:28:54;13.93;;;6.37;;
66298;SDS011;53098;47.658;8.578;2023-04-06T07:31:20;13.83;;;6.33;;
66298;SDS011;53098;47.658;8.578;2023-04-06T07:33:45;12.18;;;6.07;;
66298;SDS011;53098;47.658;8.578;2023-04-06T07:36:10;11.57;;;5.57;;
66298;SDS011;53098;47.658;8.578;2023-04-06T07:38:36;11.10;;;6.40;;
66298;SDS011;53098;47.658;8.578;2023-04-06T07:41:01;12.63;;;6.03;;
66298;SDS011;53098;47.658;8.578;2023-04-06T07:43:26;11.63;;;5.72;;
66298;SDS011;53098;47.658;8.578;2023-04-06T07:45:52;12.93;;;7.00;;
66298;SDS011;53098;47.658;8.578;2023-04-06T07:48:17;14.57;;;6.80;;
66298;SDS011;53098;47.658;8.578;2023-04-06T07:50:42;14.25;;;6.68;;
66298;SDS011;53098;47.658;8.578;2023-04-06T07:53:08;11.93;;;6.10;;
66298;SDS011;53098;47.658;8.578;2023-04-06T07:55:33;12.52;;;6.28;;
66298;SDS011;53098;47.658;8.578;2023-04-06T07:57:59;13.47;;;5.97;;
66298;SDS011;53098;47.658;8.578;2023-04-06T08:00:24;14.87;;;6.43;;
66298;SDS011;53098;47.658;8.578;2023-04-06T08:02:49;11.83;;;5.80;;
66298;SDS011;53098;47.658;8.578;2023-04-06T08:05:15;13.97;;;6.90;;
66298;SDS011;53098;47.658;8.578;2023-04-06T08:07:40;13.45;;;5.95;;
66298;SDS011;53098;47.658;8.578;2023-04-06T08:10:05;15.33;;;6.00;;
66298;SDS011;53098;47.658;8.578;2023-04-06T08:12:32;12.23;;;5.93;;
66298;SDS011;53098;47.658;8.578;2023-04-06T08:14:57;10.82;;;5.97;;
66298;SDS011;53098;47.658;8.578;2023-04-06T08:17:22;12.83;;;6.37;;
66298;SDS011;53098;47.658;8.578;2023-04-06T08:19:48;13.97;;;6.23;;
66298;SDS011;53098;47.658;8.578;2023-04-06T08:22:13;14.00;;;5.97;;
66298;SDS011;53098;47.658;8.578;2023-04-06T08:24:38;16.38;;;7.05;;
66298;SDS011;53098;47.658;8.578;2023-04-06T08:27:04;12.57;;;6.30;;
66298;SDS011;53098;47.658;8.578;2023-04-06T08:29:29;12.00;;;6.22;;
66298;SDS011;53098;47.658;8.578;2023-04-06T08:31:54;11.70;;;6.53;;
66298;SDS011;53098;47.658;8.578;2023-04-06T08:34:20;10.97;;;6.23;;
66298;SDS011;53098;47.658;8.578;2023-04-06T08:36:46;12.00;;;6.97;;
66298;SDS011;53098;47.658;8.578;2023-04-06T08:39:11;11.38;;;6.32;;
66298;SDS011;53098;47.658;8.578;2023-04-06T08:41:36;11.38;;;6.15;;
66298;SDS011;53098;47.658;8.578;2023-04-06T08:44:02;13.93;;;6.55;;
66298;SDS011;53098;47.658;8.578;2023-04-06T08:46:30;11.27;;;6.45;;
66298;SDS011;53098;47.658;8.578;2023-04-06T08:49:00;13.35;;;6.15;;
66298;SDS011;53098;47.658;8.578;2023-04-06T08:51:25;11.57;;;6.13;;
66298;SDS011;53098;47.658;8.578;2023-04-06T08:53:52;11.13;;;6.85;;
66298;SDS011;53098;47.658;8.578;2023-04-06T08:56:17;11.93;;;6.32;;
66298;SDS011;53098;47.658;8.578;2023-04-06T08:58:43;14.00;;;6.78;;
66298;SDS011;53098;47.658;8.578;2023-04-06T09:01:10;12.88;;;6.72;;
66298;SDS011;53098;47.658;8.578;2023-04-06T09:03:37;12.07;;;6.57;;
66298;SDS011;53098;47.658;8.578;2023-04-06T09:06:02;11.68;;;6.22;;
66298;SDS011;53098;47.658;8.578;2023-04-06T09:08:28;15.00;;;6.40;;
66298;SDS011;53098;47.658;8.578;2023-04-06T09:10:53;15.43;;;6.70;;
66298;SDS011;53098;47.658;8.578;2023-04-06T09:13:18;10.87;;;5.87;;
66298;SDS011;53098;47.658;8.578;2023-04-06T09:15:44;14.20;;;6.40;;
66298;SDS011;53098;47.658;8.578;2023-04-06T09:18:09;12.67;;;6.73;;
66298;SDS011;53098;47.658;8.578;2023-04-06T09:20:34;15.97;;;6.90;;
66298;SDS011;53098;47.658;8.578;2023-04-06T09:22:59;10.30;;;5.60;;
66298;SDS011;53098;47.658;8.578;2023-04-06T09:25:25;14.17;;;5.17;;
66298;SDS011;53098;47.658;8.578;2023-04-06T09:28:11;12.03;;;5.43;;
66298;SDS011;53098;47.658;8.578;2023-04-06T09:30:35;11.88;;;5.80;;
66298;SDS011;53098;47.658;8.578;2023-04-06T09:33:01;12.67;;;5.80;;
66298;SDS011;53098;47.658;8.578;2023-04-06T09:35:26;14.00;;;5.60;;
66298;SDS011;53098;47.658;8.578;2023-04-06T09:37:52;11.57;;;5.80;;
66298;SDS011;53098;47.658;8.578;2023-04-06T09:40:17;11.25;;;5.78;;
66298;SDS011;53098;47.658;8.578;2023-04-06T09:42:44;10.35;;;5.50;;
66298;SDS011;53098;47.658;8.578;2023-04-06T09:45:10;9.70;;;5.13;;
66298;SDS011;53098;47.658;8.578;2023-04-06T09:47:36;10.38;;;5.45;;
66298;SDS011;53098;47.658;8.578;2023-04-06T09:50:02;11.07;;;5.65;;
66298;SDS011;53098;47.658;8.578;2023-04-06T09:52:31;11.05;;;5.75;;
66298;SDS011;53098;47.658;8.578;2023-04-06T09:54:58;12.15;;;5.78;;
66298;SDS011;53098;47.658;8.578;2023-04-06T09:57:29;12.25;;;5.28;;
66298;SDS011;53098;47.658;8.578;2023-04-06T10:00:06;11.48;;;5.07;;
66298;SDS011;53098;47.658;8.578;2023-04-06T10:05:09;11.10;;;5.00;;
66298;SDS011;53098;47.658;8.578;2023-04-06T10:07:37;12.15;;;5.70;;
66298;SDS011;53098;47.658;8.578;2023-04-06T10:10:03;10.73;;;4.88;;
66298;SDS011;53098;47.658;8.578;2023-04-06T10:12:29;10.88;;;5.07;;
66298;SDS011;53098;47.658;8.578;2023-04-06T10:14:55;13.23;;;5.68;;
66298;SDS011;53098;47.658;8.578;2023-04-06T10:17:21;11.25;;;5.53;;
66298;SDS011;53098;47.658;8.578;2023-04-06T10:19:53;13.52;;;5.60;;
66298;SDS011;53098;47.658;8.578;2023-04-06T10:22:35;11.45;;;5.80;;
66298;SDS011;53098;47.658;8.578;2023-04-06T10:25:01;11.57;;;6.00;;
66298;SDS011;53098;47.658;8.578;2023-04-06T10:27:27;13.03;;;5.97;;
66298;SDS011;53098;47.658;8.578;2023-04-06T10:29:53;11.52;;;6.00;;
66298;SDS011;53098;47.658;8.578;2023-04-06T10:32:18;13.23;;;5.67;;
66298;SDS011;53098;47.658;8.578;2023-04-06T10:34:43;11.93;;;5.32;;
66298;SDS011;53098;47.658;8.578;2023-04-06T10:37:12;11.63;;;5.33;;
66298;SDS011;53098;47.658;8.578;2023-04-06T10:39:51;12.57;;;5.30;;
66298;SDS011;53098;47.658;8.578;2023-04-06T10:42:17;11.82;;;5.50;;
66298;SDS011;53098;47.658;8.578;2023-04-06T10:44:42;10.05;;;5.38;;
66298;SDS011;53098;47.658;8.578;2023-04-06T10:47:15;10.80;;;5.45;;
66298;SDS011;53098;47.658;8.578;2023-04-06T10:49:40;12.65;;;5.55;;
66298;SDS011;53098;47.658;8.578;2023-04-06T10:52:05;11.60;;;5.43;;
66298;SDS011;53098;47.658;8.578;2023-04-06T10:54:31;9.93;;;4.90;;
66298;SDS011;53098;47.658;8.578;2023-04-06T10:56:56;11.73;;;4.88;;
66298;SDS011;53098;47.658;8.578;2023-04-06T10:59:21;13.45;;;5.90;;
66298;SDS011;53098;47.658;8.578;2023-04-06T11:01:47;10.82;;;4.95;;
66298;SDS011;53098;47.658;8.578;2023-04-06T11:04:15;10.10;;;4.38;;
66298;SDS011;53098;47.658;8.578;2023-04-06T11:06:41;11.00;;;4.82;;
66298;SDS011;53098;47.658;8.578;2023-04-06T11:09:06;11.55;;;5.10;;
66298;SDS011;53098;47.658;8.578;2023-04-06T11:11:31;12.43;;;5.45;;
66298;SDS011;53098;47.658;8.578;2023-04-06T11:14:00;11.43;;;5.07;;
66298;SDS011;53098;47.658;8.578;2023-04-06T11:16:29;11.88;;;5.65;;
66298;SDS011;53098;47.658;8.578;2023-04-06T11:18:55;11.13;;;4.93;;
66298;SDS011;53098;47.658;8.578;2023-04-06T11:21:34;11.02;;;4.68;;
66298;SDS011;53098;47.658;8.578;2023-04-06T11:24:07;11.18;;;5.32;;
66298;SDS011;53098;47.658;8.578;2023-04-06T11:26:36;11.18;;;4.93;;
66298;SDS011;53098;47.658;8.578;2023-04-06T11:29:02;11.13;;;5.10;;
66298;SDS011;53098;47.658;8.578;2023-04-06T11:31:27;10.50;;;5.18;;
66298;SDS011;53098;47.658;8.578;2023-04-06T11:33:58;13.15;;;5.20;;
66298;SDS011;53098;47.658;8.578;2023-04-06T11:36:26;12.65;;;5.20;;
66298;SDS011;53098;47.658;8.578;2023-04-06T11:38:53;13.07;;;5.30;;
66298;SDS011;53098;47.658;8.578;2023-04-06T11:41:18;10.43;;;4.67;;
66298;SDS011;53098;47.658;8.578;2023-04-06T11:43:48;14.07;;;4.88;;
66298;SDS011;53098;47.658;8.578;2023-04-06T11:46:16;10.63;;;4.50;;
66298;SDS011;53098;47.658;8.578;2023-04-06T11:48:45;12.95;;;4.65;;
66298;SDS011;53098;47.658;8.578;2023-04-06T11:51:11;11.55;;;5.30;;
66298;SDS011;53098;47.658;8.578;2023-04-06T11:53:43;13.30;;;4.53;;
66298;SDS011;53098;47.658;8.578;2023-04-06T11:56:09;10.07;;;3.97;;
66298;SDS011;53098;47.658;8.578;2023-04-06T11:58:34;9.13;;;3.67;;
66298;SDS011;53098;47.658;8.578;2023-04-06T12:01:03;11.67;;;3.30;;
66298;SDS011;53098;47.658;8.578;2023-04-06T12:03:28;8.55;;;3.63;;
66298;SDS011;53098;47.658;8.578;2023-04-06T12:05:53;8.60;;;3.30;;
66298;SDS011;53098;47.658;8.578;2023-04-06T12:08:19;9.50;;;3.73;;
66298;SDS011;53098;47.658;8.578;2023-04-06T12:10:44;6.77;;;3.13;;
66298;SDS011;53098;47.658;8.578;2023-04-06T12:13:09;10.03;;;3.37;;
66298;SDS011;53098;47.658;8.578;2023-04-06T12:15:35;7.47;;;3.03;;
66298;SDS011;53098;47.658;8.578;2023-04-06T12:18:00;8.87;;;4.00;;
66298;SDS011;53098;47.658;8.578;2023-04-06T12:20:25;7.97;;;2.77;;
66298;SDS011;53098;47.658;8.578;2023-04-06T12:22:50;7.70;;;3.23;;
66298;SDS011;53098;47.658;8.578;2023-04-06T12:25:16;8.63;;;2.77;;
66298;SDS011;53098;47.658;8.578;2023-04-06T12:27:41;8.77;;;3.27;;
66298;SDS011;53098;47.658;8.578;2023-04-06T12:30:06;12.73;;;4.97;;
66298;SDS011;53098;47.658;8.578;2023-04-06T12:32:32;19.77;;;8.05;;
66298;SDS011;53098;47.658;8.578;2023-04-06T12:34:57;6.90;;;2.70;;
66298;SDS011;53098;47.658;8.578;2023-04-06T12:37:23;9.80;;;2.90;;
66298;SDS011;53098;47.658;8.578;2023-04-06T12:39:48;10.33;;;4.27;;
66298;SDS011;53098;47.658;8.578;2023-04-06T12:42:13;8.07;;;3.10;;
66298;SDS011;53098;47.658;8.578;2023-04-06T12:44:39;9.77;;;4.20;;
66298;SDS011;53098;47.658;8.578;2023-04-06T12:47:04;10.32;;;4.47;;
66298;SDS011;53098;47.658;8.578;2023-04-06T12:49:30;9.10;;;3.53;;
66298;SDS011;53098;47.658;8.578;2023-04-06T12:51:55;7.95;;;3.20;;
66298;SDS011;53098;47.658;8.578;2023-04-06T12:54:20;6.17;;;2.80;;
66298;SDS011;53098;47.658;8.578;2023-04-06T12:56:46;7.63;;;2.75;;
66298;SDS011;53098;47.658;8.578;2023-04-06T12:59:11;8.32;;;2.35;;
66298;SDS011;53098;47.658;8.578;2023-04-06T13:01:37;8.23;;;2.83;;
66298;SDS011;53098;47.658;8.578;2023-04-06T13:04:02;8.48;;;2.97;;
66298;SDS011;53098;47.658;8.578;2023-04-06T13:06:27;8.13;;;3.03;;
66298;SDS011;53098;47.658;8.578;2023-04-06T13:08:53;7.38;;;2.95;;
66298;SDS011;53098;47.658;8.578;2023-04-06T13:11:18;7.10;;;2.30;;
66298;SDS011;53098;47.658;8.578;2023-04-06T13:13:44;5.93;;;2.63;;
66298;SDS011;53098;47.658;8.578;2023-04-06T13:16:09;5.85;;;2.67;;
66298;SDS011;53098;47.658;8.578;2023-04-06T13:18:35;6.43;;;2.50;;
66298;SDS011;53098;47.658;8.578;2023-04-06T13:21:00;6.35;;;2.70;;
66298;SDS011;53098;47.658;8.578;2023-04-06T13:23:26;8.57;;;2.70;;
66298;SDS011;53098;47.658;8.578;2023-04-06T13:26:04;7.22;;;2.83;;
66298;SDS011;53098;47.658;8.578;2023-04-06T13:28:30;9.98;;;2.88;;
66298;SDS011;53098;47.658;8.578;2023-04-06T13:30:57;6.85;;;2.42;;
66298;SDS011;53098;47.658;8.578;2023-04-06T13:33:23;8.07;;;3.03;;
66298;SDS011;53098;47.658;8.578;2023-04-06T13:35:48;8.03;;;2.73;;
66298;SDS011;53098;47.658;8.578;2023-04-06T13:38:15;8.50;;;3.07;;
66298;SDS011;53098;47.658;8.578;2023-04-06T13:40:41;8.50;;;3.10;;
66298;SDS011;53098;47.658;8.578;2023-04-06T13:43:06;7.55;;;3.17;;
66298;SDS011;53098;47.658;8.578;2023-04-06T13:45:32;6.47;;;2.40;;
66298;SDS011;53098;47.658;8.578;2023-04-06T13:47:58;7.82;;;2.95;;
66298;SDS011;53098;47.658;8.578;2023-04-06T13:50:25;8.55;;;3.97;;
66298;SDS011;53098;47.658;8.578;2023-04-06T13:52:50;7.72;;;2.45;;
66298;SDS011;53098;47.658;8.578;2023-04-06T13:55:16;8.13;;;3.20;;
66298;SDS011;53098;47.658;8.578;2023-04-06T13:57:41;6.95;;;2.60;;
66298;SDS011;53098;47.658;8.578;2023-04-06T14:00:06;9.33;;;3.30;;
66298;SDS011;53098;47.658;8.578;2023-04-06T14:02:32;8.40;;;2.88;;
66298;SDS011;53098;47.658;8.578;2023-04-06T14:04:57;9.52;;;3.20;;
66298;SDS011;53098;47.658;8.578;2023-04-06T14:07:23;7.03;;;2.85;;
66298;SDS011;53098;47.658;8.578;2023-04-06T14:09:48;7.47;;;2.77;;
66298;SDS011;53098;47.658;8.578;2023-04-06T14:12:13;8.82;;;2.60;;
66298;SDS011;53098;47.658;8.578;2023-04-06T14:14:39;8.33;;;2.97;;
66298;SDS011;53098;47.658;8.578;2023-04-06T14:17:04;7.20;;;2.90;;
66298;SDS011;53098;47.658;8.578;2023-04-06T14:19:29;7.77;;;2.77;;
66298;SDS011;53098;47.658;8.578;2023-04-06T14:21:55;7.13;;;3.10;;
66298;SDS011;53098;47.658;8.578;2023-04-06T14:24:20;9.03;;;3.13;;
66298;SDS011;53098;47.658;8.578;2023-04-06T14:26:45;7.53;;;2.85;;
66298;SDS011;53098;47.658;8.578;2023-04-06T14:29:11;9.02;;;3.30;;
66298;SDS011;53098;47.658;8.578;2023-04-06T14:31:36;6.73;;;2.77;;